createdAt,value
2018-04-14T00:00:46.583Z,4.00
2018-04-14T00:03:12.811Z,4.93
2018-04-14T00:05:38.988Z,4.00
2018-04-14T00:08:05.165Z,3.90
2018-04-14T00:10:31.398Z,5.20
2018-04-14T00:12:57.578Z,3.90
2018-04-14T00:15:23.749Z,4.17
2018-04-14T00:17:50.701Z,4.03
2018-04-14T00:20:16.872Z,4.17
2018-04-14T00:22:43.378Z,4.73
2018-04-14T00:25:10.067Z,3.80
2018-04-14T00:27:36.248Z,3.80
2018-04-14T00:30:02.481Z,3.83
2018-04-14T00:32:29.031Z,4.00
2018-04-14T00:34:55.207Z,4.03
2018-04-14T00:37:21.462Z,4.83
2018-04-14T00:39:47.643Z,4.40
2018-04-14T00:42:13.898Z,3.60
2018-04-14T00:44:40.104Z,3.97
2018-04-14T00:47:06.280Z,4.40
2018-04-14T00:49:32.479Z,3.87
2018-04-14T00:51:58.681Z,3.90
2018-04-14T00:54:24.882Z,3.50
2018-04-14T00:56:51.203Z,3.60
2018-04-14T00:59:17.820Z,4.30
2018-04-14T01:01:44.022Z,4.37
2018-04-14T01:04:10.464Z,3.70
2018-04-14T01:06:36.661Z,4.27
2018-04-14T01:09:02.981Z,3.80
2018-04-14T01:11:29.157Z,5.20
2018-04-14T01:13:55.477Z,4.63
2018-04-14T01:16:21.637Z,4.17
2018-04-14T01:18:47.805Z,4.63
2018-04-14T01:21:14.146Z,4.83
2018-04-14T01:23:40.341Z,4.60
2018-04-14T01:26:06.507Z,5.20
2018-04-14T01:28:33.084Z,4.60
2018-04-14T01:30:59.594Z,5.03
2018-04-14T01:33:25.769Z,5.50
2018-04-14T01:35:51.996Z,5.30
2018-04-14T01:38:18.160Z,5.20
2018-04-14T01:40:51.777Z,4.30
2018-04-14T01:43:18.441Z,5.23
2018-04-14T01:45:44.970Z,6.03
2018-04-14T01:48:11.192Z,5.53
2018-04-14T01:50:37.830Z,5.67
2018-04-14T01:53:04.016Z,6.23
2018-04-14T01:55:30.194Z,5.77
2018-04-14T01:57:56.826Z,5.27
2018-04-14T02:00:23.017Z,5.47
2018-04-14T02:02:49.274Z,5.13
2018-04-14T02:05:15.696Z,5.60
2018-04-14T02:07:41.861Z,5.23
2018-04-14T02:10:08.058Z,5.30
2018-04-14T02:12:34.585Z,5.37
2018-04-14T02:15:01.123Z,6.40
2018-04-14T02:17:27.314Z,5.90
2018-04-14T02:19:53.469Z,5.90
2018-04-14T02:22:19.718Z,5.50
2018-04-14T02:24:45.893Z,5.30
2018-04-14T02:27:12.524Z,5.07
2018-04-14T02:29:38.689Z,5.90
2018-04-14T02:32:04.869Z,5.70
2018-04-14T02:34:31.075Z,5.10
2018-04-14T02:36:57.274Z,5.40
2018-04-14T02:39:23.458Z,5.53
2018-04-14T02:41:49.700Z,5.00
2018-04-14T02:44:16.271Z,5.50
2018-04-14T02:46:42.423Z,5.63
2018-04-14T02:49:08.593Z,5.67
2018-04-14T02:51:34.905Z,5.60
2018-04-14T02:54:01.059Z,6.07
2018-04-14T02:56:27.232Z,5.10
2018-04-14T02:58:53.438Z,5.00
2018-04-14T03:01:20.004Z,5.30
2018-04-14T03:03:46.190Z,5.40
2018-04-14T03:06:12.365Z,4.37
2018-04-14T03:08:38.571Z,5.00
2018-04-14T03:11:04.737Z,4.40
2018-04-14T03:13:30.976Z,5.30
2018-04-14T03:15:57.149Z,4.60
2018-04-14T03:18:23.304Z,4.57
2018-04-14T03:20:49.506Z,5.00
2018-04-14T03:23:15.689Z,4.77
2018-04-14T03:25:41.910Z,4.80
2018-04-14T03:28:08.430Z,4.47
2018-04-14T03:30:34.588Z,4.83
2018-04-14T03:33:01.010Z,4.40
2018-04-14T03:35:27.207Z,4.03
2018-04-14T03:37:53.386Z,4.53
2018-04-14T03:40:19.957Z,4.67
2018-04-14T03:42:46.119Z,4.23
2018-04-14T03:45:12.281Z,4.20
2018-04-14T03:47:38.545Z,4.63
2018-04-14T03:50:04.753Z,4.47
2018-04-14T03:52:30.988Z,4.43
2018-04-14T03:54:57.520Z,4.07
2018-04-14T03:57:23.752Z,3.63
2018-04-14T03:59:49.943Z,4.43
2018-04-14T04:02:16.606Z,4.20
2018-04-14T04:04:42.800Z,4.00
2018-04-14T04:07:08.979Z,3.80
2018-04-14T04:09:35.198Z,3.87
2018-04-14T04:12:01.371Z,4.20
2018-04-14T04:14:27.603Z,4.40
2018-04-14T04:16:53.910Z,4.10
2018-04-14T04:19:32.201Z,3.97
2018-04-14T04:22:10.528Z,4.00
2018-04-14T04:24:48.950Z,3.73
2018-04-14T04:27:16.073Z,3.90
2018-04-14T04:29:42.597Z,4.27
2018-04-14T04:32:08.762Z,3.93
2018-04-14T04:34:35.017Z,3.50
2018-04-14T04:37:01.574Z,3.60
2018-04-14T04:39:27.755Z,3.50
2018-04-14T04:41:54.237Z,3.80
2018-04-14T04:44:20.477Z,3.70
2018-04-14T04:46:46.849Z,3.50
2018-04-14T04:49:13.027Z,3.47
2018-04-14T04:51:39.985Z,3.60
2018-04-14T04:54:06.214Z,3.60
2018-04-14T04:56:32.381Z,3.70
2018-04-14T04:58:58.549Z,3.50
2018-04-14T05:01:24.751Z,3.43
2018-04-14T05:03:50.903Z,2.90
2018-04-14T05:06:17.111Z,4.07
2018-04-14T05:08:43.279Z,2.90
2018-04-14T05:11:09.633Z,3.23
2018-04-14T05:13:35.787Z,3.63
2018-04-14T05:16:02.010Z,3.20
2018-04-14T05:18:28.291Z,3.40
2018-04-14T05:20:54.463Z,2.90
2018-04-14T05:23:20.675Z,3.50
2018-04-14T05:25:47.159Z,2.90
2018-04-14T05:28:13.324Z,3.50
2018-04-14T05:30:39.517Z,3.30
2018-04-14T05:33:05.944Z,3.30
2018-04-14T05:35:32.156Z,2.93
2018-04-14T05:37:58.441Z,3.20
2018-04-14T05:40:24.804Z,3.20
2018-04-14T05:42:50.980Z,2.60
2018-04-14T05:45:17.146Z,3.20
2018-04-14T05:47:43.625Z,3.20
2018-04-14T05:50:09.884Z,3.23
2018-04-14T05:52:36.192Z,3.30
2018-04-14T05:55:02.360Z,2.97
2018-04-14T05:57:28.526Z,3.50
2018-04-14T05:59:54.933Z,3.70
2018-04-14T06:02:21.352Z,3.70
2018-04-14T06:04:48.244Z,3.37
2018-04-14T06:07:14.499Z,3.17
2018-04-14T06:09:40.678Z,3.50
2018-04-14T06:12:06.901Z,3.00
2018-04-14T06:14:33.361Z,3.17
2018-04-14T06:16:59.517Z,3.03
2018-04-14T06:19:25.751Z,3.30
2018-04-14T06:21:51.933Z,3.20
2018-04-14T06:24:18.375Z,2.87
2018-04-14T06:26:44.582Z,2.97
2018-04-14T06:29:10.803Z,3.20
2018-04-14T06:31:36.958Z,3.00
2018-04-14T06:34:03.341Z,3.67
2018-04-14T06:36:29.847Z,2.83
2018-04-14T06:38:56.010Z,2.97
2018-04-14T06:41:22.225Z,3.17
2018-04-14T06:43:48.711Z,2.87
2018-04-14T06:46:14.950Z,2.93
2018-04-14T06:48:41.177Z,2.93
2018-04-14T06:51:07.332Z,2.90
2018-04-14T06:53:33.501Z,2.70
2018-04-14T06:55:59.706Z,3.10
2018-04-14T06:58:26.392Z,3.17
2018-04-14T07:00:52.604Z,2.83
2018-04-14T07:03:19.054Z,3.10
2018-04-14T07:05:45.338Z,3.17
2018-04-14T07:08:11.556Z,2.80
2018-04-14T07:10:38.266Z,2.93
2018-04-14T07:13:04.497Z,2.73
2018-04-14T07:15:30.660Z,3.10
2018-04-14T07:17:57.140Z,2.80
2018-04-14T07:20:23.360Z,3.33
2018-04-14T07:22:49.590Z,2.70
2018-04-14T07:25:15.904Z,2.60
2018-04-14T07:27:42.080Z,2.80
2018-04-14T07:30:08.270Z,2.60
2018-04-14T07:32:34.813Z,3.20
2018-04-14T07:35:01.570Z,3.60
2018-04-14T07:37:27.732Z,2.60
2018-04-14T07:39:54.334Z,2.60
2018-04-14T07:42:27.868Z,2.70
2018-04-14T07:44:54.029Z,2.50
2018-04-14T07:47:20.212Z,2.70
2018-04-14T07:49:46.461Z,2.80
2018-04-14T07:52:12.777Z,2.40
2018-04-14T07:54:38.940Z,3.17
2018-04-14T07:57:05.193Z,3.07
2018-04-14T07:59:31.387Z,2.83
2018-04-14T08:01:57.691Z,3.10
2018-04-14T08:04:23.874Z,2.83
2018-04-14T08:06:50.099Z,2.87
2018-04-14T08:09:16.324Z,2.93
2018-04-14T08:11:42.556Z,2.70
2018-04-14T08:14:08.784Z,2.83
2018-04-14T08:16:34.954Z,2.67
2018-04-14T08:19:01.150Z,2.87
2018-04-14T08:21:27.321Z,3.30
2018-04-14T08:23:53.947Z,3.07
2018-04-14T08:26:20.164Z,3.47
2018-04-14T08:28:46.385Z,3.47
2018-04-14T08:31:12.609Z,2.90
2018-04-14T08:33:38.773Z,3.30
2018-04-14T08:36:05.077Z,2.90
2018-04-14T08:38:31.303Z,3.00
2018-04-14T08:40:57.470Z,2.37
2018-04-14T08:43:23.677Z,2.93
2018-04-14T08:45:49.852Z,2.53
2018-04-14T08:48:16.090Z,3.17
2018-04-14T08:50:42.611Z,2.87
2018-04-14T08:53:09.045Z,3.17
2018-04-14T08:55:35.345Z,2.90
2018-04-14T08:58:01.500Z,2.43
2018-04-14T09:00:27.936Z,2.57
2018-04-14T09:02:54.192Z,2.73
2018-04-14T09:05:20.748Z,2.87
2018-04-14T09:07:46.912Z,2.50
2018-04-14T09:10:13.108Z,2.70
2018-04-14T09:12:39.398Z,2.60
2018-04-14T09:15:06.642Z,3.07
2018-04-14T09:17:32.797Z,2.60
2018-04-14T09:19:59.002Z,2.97
2018-04-14T09:22:25.368Z,3.37
2018-04-14T09:24:51.617Z,2.50
2018-04-14T09:27:17.772Z,2.77
2018-04-14T09:29:43.971Z,2.80
2018-04-14T09:32:10.208Z,2.80
2018-04-14T09:34:36.392Z,2.93
2018-04-14T09:37:02.598Z,2.80
2018-04-14T09:39:28.783Z,2.80
2018-04-14T09:41:55.331Z,1.90
2018-04-14T09:44:21.785Z,2.40
2018-04-14T09:46:47.943Z,2.50
2018-04-14T09:49:14.249Z,2.60
2018-04-14T09:51:40.450Z,2.87
2018-04-14T09:54:06.606Z,2.60
2018-04-14T09:56:32.816Z,3.07
2018-04-14T09:58:59.349Z,2.60
2018-04-14T10:01:28.682Z,2.77
2018-04-14T10:03:54.889Z,2.93
2018-04-14T10:06:21.322Z,2.57
2018-04-14T10:08:47.496Z,2.60
2018-04-14T10:11:20.789Z,2.30
2018-04-14T10:13:46.944Z,2.80
2018-04-14T10:16:13.155Z,2.60
2018-04-14T10:18:39.442Z,2.33
2018-04-14T10:21:05.638Z,2.10
2018-04-14T10:23:31.832Z,2.97
2018-04-14T10:25:58.012Z,2.27
2018-04-14T10:28:24.169Z,2.00
2018-04-14T10:30:50.490Z,2.40
2018-04-14T10:33:16.663Z,2.07
2018-04-14T10:35:42.836Z,2.30
2018-04-14T10:38:09.062Z,2.10
2018-04-14T10:40:35.794Z,2.00
2018-04-14T10:43:02.001Z,2.07
2018-04-14T10:45:28.158Z,2.37
2018-04-14T10:47:54.356Z,2.30
2018-04-14T10:50:20.802Z,1.97
2018-04-14T10:52:46.966Z,1.90
2018-04-14T10:55:13.341Z,2.10
2018-04-14T10:57:39.514Z,1.90
2018-04-14T11:00:05.753Z,2.00
2018-04-14T11:02:31.971Z,2.10
2018-04-14T11:04:58.158Z,2.10
2018-04-14T11:07:24.357Z,1.93
2018-04-14T11:09:50.537Z,2.10
2018-04-14T11:12:16.719Z,1.97
2018-04-14T11:14:42.896Z,2.47
2018-04-14T11:17:09.055Z,2.17
2018-04-14T11:19:35.394Z,2.10
2018-04-14T11:22:01.599Z,2.10
2018-04-14T11:24:27.769Z,1.97
2018-04-14T11:26:54.222Z,2.17
2018-04-14T11:29:20.523Z,2.00
2018-04-14T11:31:46.706Z,2.10
2018-04-14T11:34:12.935Z,2.00
2018-04-14T11:36:39.162Z,1.67
2018-04-14T11:39:05.870Z,1.53
2018-04-14T11:41:32.310Z,2.10
2018-04-14T11:43:58.476Z,2.17
2018-04-14T11:46:24.793Z,2.10
2018-04-14T11:48:51.196Z,2.03
2018-04-14T11:51:17.344Z,2.23
2018-04-14T11:53:43.982Z,2.20
2018-04-14T11:56:10.136Z,2.20
2018-04-14T11:58:36.301Z,2.00
2018-04-14T12:01:02.516Z,2.10
2018-04-14T12:03:28.706Z,1.90
2018-04-14T12:05:55.053Z,2.07
2018-04-14T12:08:21.532Z,2.30
2018-04-14T12:10:47.722Z,2.10
2018-04-14T12:13:13.975Z,2.10
2018-04-14T12:15:40.424Z,1.77
2018-04-14T12:18:06.677Z,2.30
2018-04-14T12:20:32.922Z,1.90
2018-04-14T12:22:59.359Z,2.40
2018-04-14T12:25:25.574Z,2.23
2018-04-14T12:27:51.753Z,2.90
2018-04-14T12:30:17.958Z,2.80
2018-04-14T12:32:44.182Z,2.30
2018-04-14T12:35:10.385Z,2.57
2018-04-14T12:37:36.883Z,2.13
2018-04-14T12:40:03.165Z,2.53
2018-04-14T12:42:29.338Z,2.80
2018-04-14T12:44:55.519Z,2.70
2018-04-14T12:47:21.725Z,2.90
2018-04-14T12:49:47.955Z,3.20
2018-04-14T12:52:14.215Z,2.77
2018-04-14T12:54:40.472Z,3.27
2018-04-14T12:57:06.642Z,3.63
2018-04-14T12:59:32.874Z,3.63
2018-04-14T13:01:59.051Z,3.40
2018-04-14T13:04:25.217Z,3.00
2018-04-14T13:06:51.424Z,3.53
2018-04-14T13:09:17.596Z,3.37
2018-04-14T13:11:43.795Z,3.90
2018-04-14T13:14:10.084Z,3.10
2018-04-14T13:16:36.536Z,3.70
2018-04-14T13:19:02.861Z,3.30
2018-04-14T13:21:29.154Z,3.97
2018-04-14T13:23:55.362Z,3.20
2018-04-14T13:26:21.546Z,3.77
2018-04-14T13:28:47.814Z,3.90
2018-04-14T13:31:14.343Z,4.17
2018-04-14T13:33:40.579Z,3.67
2018-04-14T13:36:06.769Z,3.57
2018-04-14T13:38:33.544Z,3.27
2018-04-14T13:40:59.780Z,3.67
2018-04-14T13:43:26.056Z,3.70
2018-04-14T13:45:52.405Z,3.70
2018-04-14T13:48:18.609Z,4.10
2018-04-14T13:50:44.806Z,3.20
2018-04-14T13:53:11.112Z,3.80
2018-04-14T13:55:37.450Z,4.77
2018-04-14T13:58:03.705Z,3.63
2018-04-14T14:00:29.910Z,4.37
2018-04-14T14:02:56.516Z,3.40
2018-04-14T14:05:22.759Z,3.80
2018-04-14T14:07:49.558Z,4.10
2018-04-14T14:10:15.782Z,4.57
2018-04-14T14:12:41.991Z,3.80
2018-04-14T14:15:08.237Z,4.20
2018-04-14T14:17:34.457Z,3.70
2018-04-14T14:20:00.750Z,4.57
2018-04-14T14:22:27.025Z,3.83
2018-04-14T14:24:53.376Z,3.63
2018-04-14T14:27:19.641Z,3.73
2018-04-14T14:29:45.917Z,3.83
2018-04-14T14:32:12.255Z,3.67
2018-04-14T14:34:38.484Z,3.40
2018-04-14T14:37:04.783Z,3.47
2018-04-14T14:39:31.061Z,4.20
2018-04-14T14:41:57.462Z,4.03
2018-04-14T14:44:23.710Z,4.23
2018-04-14T14:46:50.012Z,3.83
2018-04-14T14:49:16.219Z,4.30
2018-04-14T14:51:42.819Z,3.87
2018-04-14T14:54:09.075Z,3.90
2018-04-14T14:56:35.396Z,5.27
2018-04-14T14:59:01.608Z,3.47
2018-04-14T15:01:27.907Z,4.00
2018-04-14T15:03:54.140Z,4.27
2018-04-14T15:06:20.419Z,4.00
2018-04-14T15:08:46.713Z,4.37
2018-04-14T15:11:12.991Z,4.90
2018-04-14T15:13:39.281Z,4.33
2018-04-14T15:16:05.549Z,4.53
2018-04-14T15:18:31.806Z,5.00
2018-04-14T15:20:58.031Z,5.13
2018-04-14T15:23:24.612Z,4.73
2018-04-14T15:25:51.125Z,4.87
2018-04-14T15:28:17.352Z,5.10
2018-04-14T15:30:43.594Z,5.70
2018-04-14T15:33:09.872Z,5.30
2018-04-14T15:35:36.178Z,5.47
2018-04-14T15:38:02.525Z,4.57
2018-04-14T15:40:28.746Z,5.10
2018-04-14T15:42:54.957Z,5.47
2018-04-14T15:45:21.201Z,5.03
2018-04-14T15:47:47.399Z,4.60
2018-04-14T15:50:13.650Z,4.80
2018-04-14T15:52:39.911Z,4.50
2018-04-14T15:55:06.391Z,5.70
2018-04-14T15:57:32.630Z,5.07
2018-04-14T15:59:58.830Z,5.20
2018-04-14T16:02:25.073Z,4.60
2018-04-14T16:04:51.444Z,5.13
2018-04-14T16:07:17.657Z,5.00
2018-04-14T16:09:43.897Z,4.80
2018-04-14T16:12:10.174Z,5.43
2018-04-14T16:14:36.383Z,4.70
2018-04-14T16:17:02.614Z,5.50
2018-04-14T16:19:28.877Z,5.23
2018-04-14T16:21:55.158Z,4.90
2018-04-14T16:24:21.537Z,5.00
2018-04-14T16:26:47.736Z,5.30
2018-04-14T16:29:14.304Z,4.53
2018-04-14T16:31:40.520Z,3.97
2018-04-14T16:34:06.788Z,4.20
2018-04-14T16:36:33.055Z,4.20
2018-04-14T16:38:59.398Z,4.80
2018-04-14T16:41:25.610Z,4.70
2018-04-14T16:43:52.183Z,4.50
2018-04-14T16:46:18.425Z,4.27
2018-04-14T16:48:44.683Z,4.03
2018-04-14T16:51:10.926Z,4.40
2018-04-14T16:53:37.144Z,4.40
2018-04-14T16:56:03.433Z,4.63
2018-04-14T16:58:29.741Z,4.67
2018-04-14T17:00:55.965Z,5.27
2018-04-14T17:03:22.628Z,4.80
2018-04-14T17:05:48.822Z,4.20
2018-04-14T17:08:15.106Z,4.03
2018-04-14T17:10:41.342Z,3.90
2018-04-14T17:13:07.626Z,3.43
2018-04-14T17:15:33.813Z,4.30
2018-04-14T17:18:00.372Z,3.80
2018-04-14T17:20:26.610Z,3.90
2018-04-14T17:22:53.042Z,3.83
2018-04-14T17:25:19.421Z,3.70
2018-04-14T17:27:45.662Z,3.90
2018-04-14T17:30:12.065Z,4.30
2018-04-14T17:32:38.286Z,3.90
2018-04-14T17:35:04.541Z,3.50
2018-04-14T17:37:30.818Z,3.30
2018-04-14T17:39:57.032Z,3.97
2018-04-14T17:42:23.838Z,4.43
2018-04-14T17:44:50.054Z,3.67
2018-04-14T17:47:16.316Z,3.67
2018-04-14T17:49:42.646Z,4.00
2018-04-14T17:52:08.870Z,3.17
2018-04-14T17:54:35.097Z,3.30
2018-04-14T17:57:01.330Z,3.63
2018-04-14T17:59:27.918Z,3.60
2018-04-14T18:01:54.169Z,3.73
2018-04-14T18:04:20.366Z,2.93
2018-04-14T18:06:46.602Z,2.93
2018-04-14T18:09:12.917Z,3.70
2018-04-14T18:11:39.177Z,3.30
2018-04-14T18:14:05.415Z,3.40
2018-04-14T18:16:31.639Z,3.50
2018-04-14T18:18:57.826Z,3.37
2018-04-14T18:21:24.178Z,3.73
2018-04-14T18:23:50.393Z,3.73
2018-04-14T18:26:16.620Z,3.50
2018-04-14T18:28:42.909Z,3.47
2018-04-14T18:31:09.140Z,3.80
2018-04-14T18:33:35.517Z,2.80
2018-04-14T18:36:01.763Z,3.30
2018-04-14T18:38:27.956Z,3.40
2018-04-14T18:40:54.248Z,3.40
2018-04-14T18:43:20.515Z,3.47
2018-04-14T18:45:46.766Z,3.27
2018-04-14T18:48:12.955Z,3.30
2018-04-14T18:50:39.189Z,3.70
2018-04-14T18:53:05.462Z,3.17
2018-04-14T18:55:31.679Z,3.50
2018-04-14T18:57:57.893Z,3.83
2018-04-14T19:00:24.132Z,3.10
2018-04-14T19:02:50.328Z,3.63
2018-04-14T19:05:16.712Z,2.90
2018-04-14T19:07:42.924Z,2.90
2018-04-14T19:10:09.182Z,3.40
2018-04-14T19:12:35.469Z,2.73
2018-04-14T19:15:01.671Z,3.83
2018-04-14T19:17:27.927Z,4.13
2018-04-14T19:19:54.114Z,3.60
2018-04-14T19:22:20.382Z,3.00
2018-04-14T19:24:46.667Z,2.73
2018-04-14T19:27:12.913Z,2.93
2018-04-14T19:29:39.593Z,2.90
2018-04-14T19:32:06.117Z,3.30
2018-04-14T19:34:32.333Z,3.67
2018-04-14T19:36:58.683Z,3.10
2018-04-14T19:39:24.893Z,3.53
2018-04-14T19:41:51.107Z,3.07
2018-04-14T19:44:17.469Z,3.27
2018-04-14T19:46:44.006Z,3.67
2018-04-14T19:49:10.231Z,3.40
2018-04-14T19:51:36.585Z,3.43
2018-04-14T19:54:02.905Z,3.70
2018-04-14T19:56:29.103Z,3.00
2018-04-14T19:58:55.450Z,3.30
2018-04-14T20:01:21.664Z,3.00
2018-04-14T20:03:47.872Z,3.33
2018-04-14T20:06:14.109Z,3.90
2018-04-14T20:08:40.337Z,3.17
2018-04-14T20:11:06.519Z,3.37
2018-04-14T20:13:32.764Z,3.63
2018-04-14T20:15:58.954Z,3.80
2018-04-14T20:18:25.480Z,3.47
2018-04-14T20:20:51.789Z,3.47
2018-04-14T20:23:18.247Z,3.50
2018-04-14T20:25:44.792Z,3.10
2018-04-14T20:28:11.016Z,3.90
2018-04-14T20:30:37.243Z,3.33
2018-04-14T20:33:03.473Z,3.40
2018-04-14T20:35:29.665Z,3.47
2018-04-14T20:37:56.297Z,3.50
2018-04-14T20:40:22.513Z,3.03
2018-04-14T20:42:48.723Z,3.50
2018-04-14T20:45:15.006Z,3.30
2018-04-14T20:47:41.211Z,3.37
2018-04-14T20:50:08.016Z,3.60
2018-04-14T20:52:34.291Z,3.30
2018-04-14T20:55:00.462Z,3.30
2018-04-14T20:57:26.652Z,3.23
2018-04-14T20:59:52.819Z,3.13
2018-04-14T21:02:19.429Z,3.10
2018-04-14T21:04:45.598Z,3.40
2018-04-14T21:07:11.776Z,3.20
2018-04-14T21:09:38.340Z,3.10
2018-04-14T21:12:04.527Z,3.17
2018-04-14T21:14:30.730Z,2.93
2018-04-14T21:16:56.900Z,3.20
2018-04-14T21:19:23.232Z,2.93
2018-04-14T21:21:49.453Z,3.00
2018-04-14T21:24:15.622Z,2.93
2018-04-14T21:26:41.819Z,2.90
2018-04-14T21:29:08.010Z,2.90
2018-04-14T21:31:34.214Z,2.90
2018-04-14T21:34:00.717Z,2.67
2018-04-14T21:36:27.238Z,3.33
2018-04-14T21:38:53.408Z,2.90
2018-04-14T21:41:19.717Z,2.43
2018-04-14T21:43:45.897Z,2.50
2018-04-14T21:46:12.110Z,3.03
2018-04-14T21:48:38.334Z,2.70
2018-04-14T21:51:04.550Z,2.90
2018-04-14T21:53:31.037Z,2.80
2018-04-14T21:55:57.261Z,2.83
2018-04-14T21:58:23.415Z,2.47
2018-04-14T22:00:50.039Z,2.50
2018-04-14T22:03:16.264Z,2.57
2018-04-14T22:05:42.816Z,2.60
2018-04-14T22:08:09.001Z,2.80
2018-04-14T22:10:35.300Z,2.67
2018-04-14T22:13:01.457Z,3.00
2018-04-14T22:15:27.638Z,2.70
2018-04-14T22:17:53.854Z,2.83
2018-04-14T22:20:20.045Z,2.20
2018-04-14T22:22:46.306Z,2.80
2018-04-14T22:25:12.464Z,3.10
2018-04-14T22:27:38.755Z,2.73
2018-04-14T22:30:04.926Z,3.10
2018-04-14T22:32:31.152Z,2.80
2018-04-14T22:34:57.395Z,2.33
2018-04-14T22:37:23.562Z,2.87
2018-04-14T22:39:49.738Z,3.03
2018-04-14T22:42:15.930Z,2.90
2018-04-14T22:44:42.079Z,3.57
2018-04-14T22:47:15.356Z,2.57
2018-04-14T22:49:41.534Z,2.83
2018-04-14T22:52:07.726Z,2.60
2018-04-14T22:54:33.934Z,2.80
2018-04-14T22:57:00.109Z,2.60
2018-04-14T22:59:26.407Z,2.10
2018-04-14T23:01:52.581Z,2.70
2018-04-14T23:04:18.783Z,2.40
2018-04-14T23:06:44.975Z,2.30
2018-04-14T23:09:11.276Z,2.63
2018-04-14T23:11:37.468Z,2.30
2018-04-14T23:14:03.647Z,3.00
2018-04-14T23:16:30.334Z,2.30
2018-04-14T23:18:56.507Z,2.40
2018-04-14T23:21:22.933Z,3.07
2018-04-14T23:23:49.185Z,2.03
2018-04-14T23:26:15.397Z,2.67
2018-04-14T23:28:41.822Z,2.20
2018-04-14T23:31:08.022Z,2.37
2018-04-14T23:33:34.225Z,2.60
2018-04-14T23:36:00.489Z,2.77
2018-04-14T23:38:26.711Z,2.60
2018-04-14T23:40:52.945Z,2.87
2018-04-14T23:43:19.392Z,2.93
2018-04-14T23:45:45.691Z,2.20
2018-04-14T23:48:11.856Z,3.30
2018-04-14T23:50:38.023Z,2.70
2018-04-14T23:53:04.253Z,2.27
2018-04-14T23:55:30.430Z,2.00
2018-04-14T23:57:56.966Z,2.30
